createdAt,value
2023-03-21T00:01:51.555Z,7.45
2023-03-21T00:04:18.776Z,7.65
2023-03-21T00:06:46.621Z,7.43
2023-03-21T00:09:13.756Z,7.38
2023-03-21T00:11:41.119Z,6.78
2023-03-21T00:14:09.043Z,7.68
2023-03-21T00:16:38.046Z,6.32
2023-03-21T00:19:07.529Z,7.45
2023-03-21T00:21:55.537Z,6.38
2023-03-21T00:24:25.532Z,6.90
2023-03-21T00:26:53.680Z,7.13
2023-03-21T00:29:21.126Z,7.07
2023-03-21T00:31:48.446Z,7.00
2023-03-21T00:34:17.695Z,7.32
2023-03-21T00:36:50.774Z,7.53
2023-03-21T00:39:17.941Z,5.70
2023-03-21T00:41:45.265Z,6.28
2023-03-21T00:44:16.169Z,6.65
2023-03-21T00:47:04.456Z,6.57
2023-03-21T00:49:34.280Z,7.15
2023-03-21T00:52:17.058Z,6.47
2023-03-21T00:54:47.701Z,7.18
2023-03-21T00:57:15.084Z,6.88
2023-03-21T00:59:42.384Z,6.78
2023-03-21T01:02:14.950Z,6.10
2023-03-21T01:04:42.500Z,6.35
2023-03-21T01:07:10.846Z,6.63
2023-03-21T01:09:39.033Z,6.25
2023-03-21T01:12:06.449Z,5.90
2023-03-21T01:14:33.659Z,6.50
2023-03-21T01:17:00.968Z,5.97
2023-03-21T01:19:40.947Z,6.13
2023-03-21T01:22:16.138Z,6.88
2023-03-21T01:24:53.877Z,5.53
2023-03-21T01:27:24.113Z,6.40
2023-03-21T01:29:51.597Z,5.68
2023-03-21T01:32:18.852Z,5.95
2023-03-21T01:34:46.133Z,6.07
2023-03-21T01:37:14.499Z,5.85
2023-03-21T01:39:47.191Z,5.72
2023-03-21T01:42:15.017Z,6.00
2023-03-21T01:45:01.727Z,5.35
2023-03-21T01:47:43.688Z,5.70
2023-03-21T01:50:27.106Z,5.72
2023-03-21T01:53:17.064Z,5.90
2023-03-21T01:55:44.371Z,5.78
2023-03-21T02:01:06.495Z,5.75
2023-03-21T02:03:51.229Z,6.18
2023-03-21T02:06:57.386Z,6.10
2023-03-21T02:09:46.611Z,6.03
2023-03-21T02:12:18.771Z,5.65
2023-03-21T02:14:49.601Z,5.85
2023-03-21T02:17:47.329Z,6.22
2023-03-21T02:20:44.059Z,5.22
2023-03-21T02:23:30.099Z,5.35
2023-03-21T02:26:19.164Z,6.10
2023-03-21T02:28:53.800Z,5.80
2023-03-21T02:32:00.857Z,5.95
2023-03-21T02:34:46.276Z,6.15
2023-03-21T02:37:36.760Z,5.65
2023-03-21T02:40:15.397Z,5.70
2023-03-21T02:42:51.643Z,5.75
2023-03-21T02:45:30.626Z,5.22
2023-03-21T02:48:06.903Z,5.43
2023-03-21T02:50:48.504Z,5.82
2023-03-21T02:53:23.672Z,5.50
2023-03-21T02:55:53.563Z,5.82
2023-03-21T02:58:25.542Z,5.00
2023-03-21T03:00:57.771Z,5.30
2023-03-21T03:03:35.930Z,5.60
2023-03-21T03:06:17.157Z,4.97
2023-03-21T03:09:01.791Z,5.85
2023-03-21T03:11:44.988Z,5.13
2023-03-21T03:14:56.406Z,5.40
2023-03-21T03:17:41.410Z,5.18
2023-03-21T03:20:18.022Z,4.57
2023-03-21T03:22:57.612Z,5.90
2023-03-21T03:25:42.852Z,5.47
2023-03-21T03:28:17.347Z,5.45
2023-03-21T03:31:01.127Z,5.38
2023-03-21T03:33:41.688Z,5.13
2023-03-21T03:36:21.444Z,4.55
2023-03-21T03:38:57.950Z,5.00
2023-03-21T03:41:29.353Z,4.72
2023-03-21T03:44:02.350Z,5.50
2023-03-21T03:46:48.146Z,5.32
2023-03-21T03:49:21.145Z,5.20
2023-03-21T03:52:20.409Z,5.30
2023-03-21T03:54:58.664Z,5.80
2023-03-21T03:57:27.660Z,5.00
2023-03-21T03:59:56.275Z,4.90
2023-03-21T04:02:45.283Z,4.95
2023-03-21T04:05:21.203Z,5.07
2023-03-21T04:07:51.147Z,4.63
2023-03-21T04:12:50.481Z,4.82
2023-03-21T04:15:26.111Z,5.47
2023-03-21T04:17:59.487Z,4.90
2023-03-21T04:20:36.598Z,4.65
2023-03-21T04:23:06.154Z,4.95
2023-03-21T04:25:36.899Z,4.97
2023-03-21T04:28:06.691Z,4.78
2023-03-21T04:30:58.934Z,4.78
2023-03-21T04:33:28.748Z,4.73
2023-03-21T04:35:59.214Z,5.03
2023-03-21T04:41:03.211Z,4.43
2023-03-21T04:43:32.179Z,5.25
2023-03-21T04:45:59.715Z,5.03
2023-03-21T04:48:28.026Z,4.72
2023-03-21T04:50:56.516Z,4.13
2023-03-21T04:53:23.924Z,4.75
2023-03-21T04:55:54.880Z,4.90
2023-03-21T04:58:24.130Z,4.43
2023-03-21T05:00:53.182Z,5.18
2023-03-21T05:03:22.017Z,4.72
2023-03-21T05:05:49.673Z,4.88
2023-03-21T05:08:19.351Z,4.25
2023-03-21T05:10:46.650Z,5.03
2023-03-21T05:13:14.073Z,4.57
2023-03-21T05:15:41.326Z,4.70
2023-03-21T05:18:11.588Z,3.97
2023-03-21T05:20:54.209Z,4.00
2023-03-21T05:23:22.764Z,4.78
2023-03-21T05:25:51.169Z,4.40
2023-03-21T05:28:36.957Z,4.68
2023-03-21T05:31:05.722Z,4.07
2023-03-21T05:33:33.381Z,4.70
2023-03-21T05:36:00.942Z,4.18
2023-03-21T05:38:31.631Z,4.38
2023-03-21T05:40:59.899Z,4.22
2023-03-21T05:43:27.519Z,4.38
2023-03-21T05:45:55.327Z,4.40
2023-03-21T05:48:24.230Z,3.90
2023-03-21T05:51:08.046Z,4.22
2023-03-21T05:53:35.842Z,4.38
2023-03-21T05:56:03.178Z,4.63
2023-03-21T05:58:42.968Z,4.05
2023-03-21T06:01:10.959Z,4.35
2023-03-21T06:03:42.014Z,4.30
2023-03-21T06:06:27.404Z,4.05
2023-03-21T06:09:00.907Z,3.55
2023-03-21T06:11:32.092Z,4.38
2023-03-21T06:14:20.907Z,3.38
2023-03-21T06:17:06.012Z,4.22
2023-03-21T06:19:35.168Z,4.65
2023-03-21T06:22:13.089Z,4.07
2023-03-21T06:24:41.861Z,4.32
2023-03-21T06:27:09.157Z,3.78
2023-03-21T06:29:51.628Z,4.20
2023-03-21T06:32:19.310Z,4.53
2023-03-21T06:34:48.636Z,4.40
2023-03-21T06:37:16.468Z,4.38
2023-03-21T06:39:43.949Z,3.63
2023-03-21T06:42:12.187Z,4.25
2023-03-21T06:44:39.848Z,4.80
2023-03-21T06:47:12.158Z,4.68
2023-03-21T06:49:42.921Z,3.85
2023-03-21T06:52:12.415Z,4.13
2023-03-21T06:54:40.441Z,4.03
2023-03-21T06:57:13.517Z,4.63
2023-03-21T06:59:44.089Z,4.88
2023-03-21T07:02:16.017Z,4.18
2023-03-21T07:04:50.902Z,3.83
2023-03-21T07:07:26.223Z,4.30
2023-03-21T07:09:53.472Z,4.03
2023-03-21T07:12:21.976Z,3.50
2023-03-21T07:15:08.324Z,4.18
2023-03-21T07:17:37.093Z,4.18
2023-03-21T07:20:08.050Z,4.45
2023-03-21T07:22:36.207Z,4.65
2023-03-21T07:25:05.648Z,4.07
2023-03-21T07:27:40.880Z,3.92
2023-03-21T07:30:10.217Z,4.30
2023-03-21T07:32:38.212Z,4.07
2023-03-21T07:35:12.540Z,4.35
2023-03-21T07:37:40.525Z,4.22
2023-03-21T07:40:10.732Z,3.75
2023-03-21T07:42:40.956Z,3.83
2023-03-21T07:45:14.692Z,5.22
2023-03-21T07:47:42.192Z,4.67
2023-03-21T07:50:10.024Z,8.85
2023-03-21T07:52:37.359Z,11.15
2023-03-21T07:55:05.328Z,10.23
2023-03-21T07:57:32.633Z,8.43
2023-03-21T07:59:59.936Z,9.25
2023-03-21T08:02:27.484Z,6.68
2023-03-21T08:04:54.832Z,7.13
2023-03-21T08:07:22.367Z,6.13
2023-03-21T08:09:49.732Z,5.78
2023-03-21T08:12:17.054Z,5.80
2023-03-21T08:14:44.537Z,5.05
2023-03-21T08:17:11.870Z,5.13
2023-03-21T08:19:39.208Z,4.88
2023-03-21T08:22:06.953Z,4.68
2023-03-21T08:24:34.427Z,5.30
2023-03-21T08:27:02.167Z,4.18
2023-03-21T08:29:29.579Z,5.00
2023-03-21T08:31:58.089Z,3.85
2023-03-21T08:34:26.682Z,3.90
2023-03-21T08:36:54.681Z,4.30
2023-03-21T08:39:22.513Z,4.25
2023-03-21T08:41:49.801Z,4.35
2023-03-21T08:44:17.184Z,3.78
2023-03-21T08:46:44.573Z,3.67
2023-03-21T08:49:12.635Z,4.28
2023-03-21T08:51:41.229Z,4.03
2023-03-21T08:54:17.310Z,3.70
2023-03-21T08:56:44.624Z,4.07
2023-03-21T08:59:11.946Z,3.60
2023-03-21T09:01:39.569Z,4.20
2023-03-21T09:04:10.765Z,3.88
2023-03-21T09:06:41.033Z,3.55
2023-03-21T09:09:09.427Z,4.05
2023-03-21T09:11:36.834Z,3.40
2023-03-21T09:14:34.769Z,3.67
2023-03-21T09:17:02.419Z,4.07
2023-03-21T09:19:30.444Z,3.60
2023-03-21T09:21:57.910Z,3.40
2023-03-21T09:24:26.445Z,3.95
2023-03-21T09:26:53.847Z,3.55
2023-03-21T09:29:21.537Z,3.55
2023-03-21T09:31:49.836Z,4.03
2023-03-21T09:34:17.197Z,3.85
2023-03-21T09:36:44.816Z,3.75
2023-03-21T09:39:12.800Z,3.90
2023-03-21T09:42:12.215Z,3.65
2023-03-21T09:44:46.135Z,4.25
2023-03-21T09:47:19.752Z,3.95
2023-03-21T09:49:56.878Z,4.05
2023-03-21T09:53:05.831Z,3.53
2023-03-21T09:55:36.656Z,3.70
2023-03-21T09:58:14.418Z,3.85
2023-03-21T10:00:47.505Z,3.88
2023-03-21T10:05:58.779Z,3.95
2023-03-21T10:08:36.613Z,4.38
2023-03-21T10:11:12.712Z,4.05
2023-03-21T10:13:46.678Z,3.95
2023-03-21T10:16:17.629Z,3.90
2023-03-21T10:18:46.934Z,3.75
2023-03-21T10:21:56.394Z,4.10
2023-03-21T10:24:26.958Z,4.32
2023-03-21T10:26:56.066Z,3.95
2023-03-21T10:29:37.172Z,4.13
2023-03-21T10:32:06.386Z,3.88
2023-03-21T10:34:40.063Z,3.63
2023-03-21T10:37:08.108Z,4.47
2023-03-21T10:39:40.353Z,4.10
2023-03-21T10:42:25.355Z,4.50
2023-03-21T10:44:55.264Z,3.90
2023-03-21T10:47:27.462Z,4.07
2023-03-21T10:50:11.041Z,4.10
2023-03-21T10:52:45.565Z,3.97
2023-03-21T10:55:25.799Z,4.32
2023-03-21T10:57:57.703Z,3.85
2023-03-21T11:00:29.794Z,3.83
2023-03-21T11:02:58.346Z,4.70
2023-03-21T11:05:33.797Z,4.10
2023-03-21T11:08:06.976Z,3.63
2023-03-21T11:10:51.265Z,3.95
2023-03-21T11:13:40.814Z,4.10
2023-03-21T11:16:22.700Z,4.10
2023-03-21T11:18:51.815Z,4.28
2023-03-21T11:21:21.697Z,4.00
2023-03-21T11:23:51.785Z,3.72
2023-03-21T11:26:32.929Z,4.13
2023-03-21T11:29:01.179Z,3.58
2023-03-21T11:31:40.181Z,3.60
2023-03-21T11:34:09.343Z,3.58
2023-03-21T11:36:41.773Z,3.85
2023-03-21T11:39:11.814Z,4.10
2023-03-21T11:41:41.116Z,5.53
2023-03-21T11:44:26.532Z,4.22
2023-03-21T11:46:54.452Z,3.70
2023-03-21T11:49:23.266Z,4.40
2023-03-21T11:52:08.458Z,3.67
2023-03-21T11:54:44.308Z,3.55
2023-03-21T11:57:44.101Z,3.78
2023-03-21T12:00:25.970Z,3.95
2023-03-21T12:03:19.621Z,3.17
2023-03-21T12:09:01.721Z,3.60
2023-03-21T12:11:52.616Z,3.50
2023-03-21T12:14:27.379Z,3.38
2023-03-21T12:17:31.782Z,3.10
2023-03-21T12:20:14.386Z,3.08
2023-03-21T12:22:54.624Z,5.10
2023-03-21T12:25:29.064Z,6.88
2023-03-21T12:28:32.443Z,9.75
2023-03-21T12:31:09.183Z,9.27
2023-03-21T12:33:57.579Z,7.22
2023-03-21T12:36:31.001Z,6.55
2023-03-21T12:39:16.982Z,5.93
2023-03-21T12:41:52.934Z,5.10
2023-03-21T12:44:26.357Z,4.80
2023-03-21T12:47:13.447Z,4.72
2023-03-21T12:50:09.976Z,4.82
2023-03-21T12:52:41.634Z,4.50
2023-03-21T12:55:47.422Z,3.92
2023-03-21T12:58:24.398Z,4.18
2023-03-21T13:00:54.308Z,3.83
2023-03-21T13:03:45.357Z,5.13
2023-03-21T13:06:18.357Z,4.40
2023-03-21T13:08:58.160Z,4.85
2023-03-21T13:11:29.189Z,4.60
2023-03-21T13:14:05.465Z,4.78
2023-03-21T13:16:39.119Z,5.25
2023-03-21T13:19:09.198Z,5.22
2023-03-21T13:21:40.623Z,4.35
2023-03-21T13:24:19.969Z,4.57
2023-03-21T13:26:57.876Z,4.95
2023-03-21T13:29:44.388Z,4.93
2023-03-21T13:32:30.861Z,4.15
2023-03-21T13:35:21.156Z,4.22
2023-03-21T13:37:57.190Z,4.63
2023-03-21T13:40:57.198Z,3.65
2023-03-21T13:43:39.397Z,4.10
2023-03-21T13:46:12.921Z,3.45
2023-03-21T13:49:04.446Z,3.85
2023-03-21T13:51:31.691Z,3.85
2023-03-21T13:54:08.952Z,3.45
2023-03-21T13:57:01.152Z,3.22
2023-03-21T13:59:37.773Z,3.63
2023-03-21T14:02:31.714Z,3.08
2023-03-21T14:05:06.406Z,3.72
2023-03-21T14:07:42.864Z,3.60
2023-03-21T14:10:28.647Z,3.38
2023-03-21T14:12:57.125Z,3.10
2023-03-21T14:15:27.728Z,3.33
2023-03-21T14:17:59.035Z,2.92
2023-03-21T14:20:32.488Z,3.22
2023-03-21T14:23:00.083Z,3.35
2023-03-21T14:25:40.932Z,3.22
2023-03-21T14:28:18.870Z,3.55
2023-03-21T14:30:51.601Z,3.28
2023-03-21T14:33:27.206Z,3.78
2023-03-21T14:36:00.887Z,2.95
2023-03-21T14:38:35.729Z,3.33
2023-03-21T14:41:04.190Z,3.20
2023-03-21T14:43:34.218Z,3.33
2023-03-21T14:46:01.613Z,3.28
2023-03-21T14:48:32.066Z,3.10
2023-03-21T14:51:06.014Z,2.83
2023-03-21T14:53:39.964Z,3.40
2023-03-21T14:56:17.054Z,2.70
2023-03-21T14:58:46.177Z,2.60
2023-03-21T15:01:24.981Z,2.63
2023-03-21T15:03:52.712Z,2.88
2023-03-21T15:06:20.297Z,3.08
2023-03-21T15:09:02.784Z,2.83
2023-03-21T15:11:33.811Z,3.43
2023-03-21T15:14:04.286Z,3.15
2023-03-21T15:16:32.365Z,2.83
2023-03-21T15:19:01.873Z,3.00
2023-03-21T15:21:42.252Z,3.30
2023-03-21T15:24:17.136Z,3.22
2023-03-21T15:26:46.527Z,2.95
2023-03-21T15:29:16.265Z,2.67
2023-03-21T15:31:44.774Z,3.25
2023-03-21T15:34:21.224Z,3.17
2023-03-21T15:36:50.919Z,3.35
2023-03-21T15:39:21.588Z,2.83
2023-03-21T15:42:03.859Z,2.72
2023-03-21T15:44:32.269Z,3.33
2023-03-21T15:46:59.949Z,3.47
2023-03-21T15:49:40.343Z,3.65
2023-03-21T15:52:17.043Z,7.50
2023-03-21T15:54:59.434Z,11.27
2023-03-21T15:57:32.802Z,12.63
2023-03-21T16:00:28.020Z,11.10
2023-03-21T16:03:00.909Z,13.75
2023-03-21T16:05:31.535Z,12.25
2023-03-21T16:08:22.959Z,10.85
2023-03-21T16:10:50.243Z,9.25
2023-03-21T16:13:17.824Z,8.63
2023-03-21T16:15:46.935Z,6.93
2023-03-21T16:18:16.190Z,8.05
2023-03-21T16:20:46.125Z,7.95
2023-03-21T16:23:15.002Z,6.68
2023-03-21T16:25:44.102Z,5.90
2023-03-21T16:28:16.530Z,5.22
2023-03-21T16:30:44.942Z,6.28
2023-03-21T16:33:13.355Z,5.50
2023-03-21T16:35:41.270Z,5.45
2023-03-21T16:38:12.473Z,5.40
2023-03-21T16:40:43.512Z,5.45
2023-03-21T16:43:11.453Z,4.78
2023-03-21T16:45:38.801Z,5.78
2023-03-21T16:48:08.753Z,5.00
2023-03-21T16:50:41.338Z,5.43
2023-03-21T16:53:09.552Z,5.85
2023-03-21T16:55:37.770Z,4.95
2023-03-21T16:58:06.241Z,4.55
2023-03-21T17:00:33.901Z,4.93
2023-03-21T17:03:06.582Z,5.38
2023-03-21T17:05:34.036Z,5.10
2023-03-21T17:08:02.563Z,4.38
2023-03-21T17:10:31.761Z,5.88
2023-03-21T17:12:59.772Z,4.97
2023-03-21T17:15:27.122Z,5.40
2023-03-21T17:17:55.835Z,5.53
2023-03-21T17:20:32.559Z,5.30
2023-03-21T17:23:00.286Z,5.43
2023-03-21T17:25:27.816Z,5.45
2023-03-21T17:27:56.328Z,4.78
2023-03-21T17:30:33.406Z,5.18
2023-03-21T17:33:00.742Z,4.82
2023-03-21T17:35:29.008Z,4.07
2023-03-21T17:37:58.617Z,4.95
2023-03-21T17:40:28.794Z,4.28
2023-03-21T17:42:57.290Z,3.95
2023-03-21T17:45:25.361Z,4.55
2023-03-21T17:47:53.045Z,4.53
2023-03-21T17:50:27.216Z,4.47
2023-03-21T17:52:57.358Z,4.55
2023-03-21T17:55:24.999Z,5.22
2023-03-21T17:57:52.302Z,7.40
2023-03-21T18:00:24.145Z,6.65
2023-03-21T18:02:51.868Z,6.15
2023-03-21T18:05:21.594Z,6.07
2023-03-21T18:10:37.404Z,4.95
2023-03-21T18:13:04.884Z,5.25
2023-03-21T18:15:32.935Z,5.80
2023-03-21T18:18:00.229Z,5.40
2023-03-21T18:20:49.840Z,5.78
2023-03-21T18:23:16.090Z,5.80
2023-03-21T18:25:43.489Z,6.10
2023-03-21T18:28:12.628Z,6.18
2023-03-21T18:31:05.426Z,5.60
2023-03-21T18:33:28.624Z,5.47
2023-03-21T18:36:00.005Z,5.13
2023-03-21T18:38:28.773Z,4.93
2023-03-21T18:40:56.669Z,5.00
2023-03-21T18:43:59.648Z,4.63
2023-03-21T18:46:12.726Z,5.47
2023-03-21T18:48:40.415Z,5.47
2023-03-21T18:51:09.592Z,4.80
2023-03-21T18:53:37.337Z,5.18
2023-03-21T18:56:09.946Z,5.10
2023-03-21T18:58:37.653Z,4.88
2023-03-21T19:01:05.456Z,4.50
2023-03-21T19:03:36.939Z,5.18
2023-03-21T19:06:06.504Z,5.68
2023-03-21T19:08:38.354Z,4.95
2023-03-21T19:11:07.081Z,5.18
2023-03-21T19:13:34.866Z,5.97
2023-03-21T19:16:03.054Z,5.68
2023-03-21T19:18:53.361Z,5.32
2023-03-21T19:21:19.572Z,6.13
2023-03-21T19:24:22.923Z,5.97
2023-03-21T19:26:34.677Z,5.93
2023-03-21T19:29:02.063Z,5.53
2023-03-21T19:31:29.463Z,6.15
2023-03-21T19:33:57.196Z,6.82
2023-03-21T19:36:26.362Z,6.10
2023-03-21T19:38:53.902Z,6.53
2023-03-21T19:41:21.226Z,6.68
2023-03-21T19:43:54.821Z,5.53
2023-03-21T19:46:25.017Z,6.13
2023-03-21T19:48:56.940Z,5.50
2023-03-21T19:51:29.869Z,6.15
2023-03-21T19:54:04.570Z,6.18
2023-03-21T19:56:32.110Z,5.28
2023-03-21T19:59:02.624Z,5.93
2023-03-21T20:01:32.458Z,4.78
2023-03-21T20:04:00.691Z,5.35
2023-03-21T20:06:28.300Z,4.43
2023-03-21T20:11:43.551Z,4.93
2023-03-21T20:14:11.047Z,4.30
2023-03-21T20:16:38.378Z,4.75
2023-03-21T20:19:08.960Z,4.82
2023-03-21T20:21:47.699Z,5.97
2023-03-21T20:24:17.643Z,5.75
2023-03-21T20:26:48.597Z,5.25
2023-03-21T20:30:06.943Z,5.97
2023-03-21T20:32:04.379Z,5.72
2023-03-21T20:34:31.761Z,5.28
2023-03-21T20:36:59.146Z,4.57
2023-03-21T20:39:29.455Z,6.93
2023-03-21T20:41:59.414Z,5.93
2023-03-21T20:44:51.961Z,5.10
2023-03-21T20:47:15.105Z,5.93
2023-03-21T20:49:42.391Z,6.03
2023-03-21T20:54:57.553Z,6.10
2023-03-21T20:57:28.722Z,6.40
2023-03-21T20:59:57.612Z,6.68
2023-03-21T21:02:25.272Z,5.47
2023-03-21T21:05:23.745Z,5.65
2023-03-21T21:07:42.753Z,6.43
2023-03-21T21:10:14.175Z,6.07
2023-03-21T21:12:45.133Z,6.00
2023-03-21T21:15:16.687Z,6.10
2023-03-21T21:20:33.800Z,6.93
2023-03-21T21:23:01.264Z,6.70
2023-03-21T21:25:31.905Z,6.88
2023-03-21T21:28:01.699Z,5.95
2023-03-21T21:30:29.794Z,7.07
2023-03-21T21:32:59.691Z,7.03
2023-03-21T21:35:27.134Z,6.78
2023-03-21T21:37:54.895Z,6.40
2023-03-21T21:40:23.364Z,6.60
2023-03-21T21:42:50.981Z,6.50
2023-03-21T21:45:18.979Z,5.78
2023-03-21T21:47:46.566Z,6.93
2023-03-21T21:50:14.255Z,7.05
2023-03-21T21:52:43.868Z,6.57
2023-03-21T21:55:13.098Z,5.90
2023-03-21T21:57:41.050Z,6.50
2023-03-21T22:00:13.707Z,6.38
2023-03-21T22:02:41.571Z,6.18
2023-03-21T22:05:10.518Z,9.38
2023-03-21T22:07:38.225Z,7.85
2023-03-21T22:10:06.643Z,9.40
2023-03-21T22:12:33.997Z,8.05
2023-03-21T22:15:01.558Z,8.73
2023-03-21T22:17:29.039Z,9.98
2023-03-21T22:20:05.753Z,9.45
2023-03-21T22:22:34.992Z,9.38
2023-03-21T22:25:03.709Z,9.27
2023-03-21T22:27:31.190Z,9.63
2023-03-21T22:30:04.727Z,9.82
2023-03-21T22:32:32.456Z,9.43
2023-03-21T22:35:02.316Z,9.75
2023-03-21T22:37:35.499Z,11.30
2023-03-21T22:42:32.680Z,9.77
2023-03-21T22:44:59.942Z,10.50
2023-03-21T22:47:27.395Z,10.82
2023-03-21T22:49:54.615Z,9.93
2023-03-21T22:52:23.013Z,10.63
2023-03-21T22:54:50.419Z,9.68
2023-03-21T22:57:20.124Z,9.68
2023-03-21T22:59:47.385Z,9.57
2023-03-21T23:02:15.696Z,10.07
2023-03-21T23:04:43.066Z,10.05
2023-03-21T23:07:10.699Z,10.07
2023-03-21T23:09:38.038Z,10.20
2023-03-21T23:12:05.469Z,9.77
2023-03-21T23:14:32.767Z,9.82
2023-03-21T23:17:00.232Z,9.50
2023-03-21T23:19:28.784Z,9.13
2023-03-21T23:21:56.263Z,9.23
2023-03-21T23:24:24.495Z,10.23
2023-03-21T23:26:51.871Z,8.32
2023-03-21T23:29:19.228Z,9.70
2023-03-21T23:31:46.866Z,9.95
2023-03-21T23:34:14.367Z,9.55
2023-03-21T23:36:42.057Z,9.25
2023-03-21T23:39:09.920Z,9.05
2023-03-21T23:41:37.350Z,9.90
2023-03-21T23:44:05.230Z,10.13
2023-03-21T23:46:32.825Z,9.73
2023-03-21T23:49:00.417Z,9.38
2023-03-21T23:51:27.841Z,8.70
2023-03-21T23:53:56.617Z,9.13
2023-03-21T23:56:26.170Z,9.25
2023-03-21T23:58:54.125Z,8.65
